createdAt,value
2018-03-03T00:00:56.296Z,48.40
2018-03-03T00:01:56.248Z,48.52
2018-03-03T00:02:56.204Z,48.52
2018-03-03T00:03:56.168Z,48.40
2018-03-03T00:04:56.146Z,48.59
2018-03-03T00:05:56.087Z,48.11
2018-03-03T00:06:56.052Z,48.21
2018-03-03T00:07:56.004Z,48.42
2018-03-03T00:08:55.963Z,48.49
2018-03-03T00:09:55.915Z,48.49
2018-03-03T00:10:55.883Z,48.49
2018-03-03T00:11:55.841Z,48.69
2018-03-03T00:12:55.800Z,48.49
2018-03-03T00:13:55.760Z,48.30
2018-03-03T00:14:55.720Z,48.69
2018-03-03T00:15:55.678Z,48.59
2018-03-03T00:16:55.644Z,48.69
2018-03-03T00:17:55.594Z,48.97
2018-03-03T00:18:55.562Z,48.97
2018-03-03T00:19:55.518Z,48.69
2018-03-03T00:20:55.470Z,48.69
2018-03-03T00:21:55.436Z,48.59
2018-03-03T00:22:55.448Z,49.17
2018-03-03T00:23:55.357Z,48.59
2018-03-03T00:24:55.309Z,48.40
2018-03-03T00:25:55.268Z,48.21
2018-03-03T00:26:55.221Z,48.49
2018-03-03T00:27:55.182Z,48.79
2018-03-03T00:28:55.148Z,48.69
2018-03-03T00:29:55.112Z,48.69
2018-03-03T00:30:55.064Z,48.69
2018-03-03T00:31:55.026Z,48.69
2018-03-03T00:32:54.983Z,48.49
2018-03-03T00:33:54.938Z,48.40
2018-03-03T00:34:54.895Z,48.88
2018-03-03T00:35:54.857Z,48.88
2018-03-03T00:36:54.816Z,48.79
2018-03-03T00:37:54.768Z,48.97
2018-03-03T00:38:54.726Z,49.07
2018-03-03T00:39:54.693Z,48.40
2018-03-03T00:40:54.650Z,48.79
2018-03-03T00:41:54.601Z,48.88
2018-03-03T00:42:54.564Z,48.69
2018-03-03T00:43:54.530Z,48.69
2018-03-03T00:44:54.486Z,49.27
2018-03-03T00:45:54.444Z,49.17
2018-03-03T00:46:54.401Z,48.97
2018-03-03T00:47:54.369Z,48.97
2018-03-03T00:48:54.322Z,48.88
2018-03-03T00:49:54.286Z,48.88
2018-03-03T00:50:54.243Z,48.79
2018-03-03T00:51:54.195Z,49.07
2018-03-03T00:52:54.157Z,49.07
2018-03-03T00:53:54.115Z,49.27
2018-03-03T00:54:54.074Z,48.97
2018-03-03T00:55:54.031Z,49.27
2018-03-03T00:56:53.991Z,48.97
2018-03-03T00:57:53.956Z,49.07
2018-03-03T00:58:53.917Z,48.97
2018-03-03T00:59:53.871Z,49.17
2018-03-03T01:00:53.831Z,48.97
2018-03-03T01:01:53.794Z,49.07
2018-03-03T01:02:53.749Z,49.15
2018-03-03T01:03:53.706Z,49.17
2018-03-03T01:04:53.687Z,49.17
2018-03-03T01:05:53.631Z,49.15
2018-03-03T01:06:53.590Z,49.07
2018-03-03T01:07:53.540Z,49.91
2018-03-03T01:08:53.539Z,49.55
2018-03-03T01:09:53.465Z,49.63
2018-03-03T01:10:53.412Z,49.75
2018-03-03T01:11:53.374Z,49.91
2018-03-03T01:12:53.341Z,49.73
2018-03-03T01:13:53.296Z,49.75
2018-03-03T01:14:53.261Z,49.73
2018-03-03T01:15:53.211Z,49.73
2018-03-03T01:16:53.174Z,49.53
2018-03-03T01:17:53.127Z,49.73
2018-03-03T01:18:53.086Z,49.73
2018-03-03T01:19:53.045Z,49.84
2018-03-03T01:20:53.007Z,49.84
2018-03-03T01:21:52.972Z,49.65
2018-03-03T01:22:52.935Z,49.82
2018-03-03T01:23:52.888Z,49.82
2018-03-03T01:24:52.843Z,49.73
2018-03-03T01:25:52.815Z,49.73
2018-03-03T01:26:52.751Z,50.11
2018-03-03T01:27:52.709Z,50.30
2018-03-03T01:28:52.681Z,50.49
2018-03-03T01:29:52.637Z,50.49
2018-03-03T01:30:52.598Z,50.30
2018-03-03T01:31:52.558Z,50.21
2018-03-03T01:32:52.525Z,50.30
2018-03-03T01:33:52.481Z,50.69
2018-03-03T01:34:52.479Z,50.59
2018-03-03T01:35:52.383Z,50.69
2018-03-03T01:36:52.344Z,50.30
2018-03-03T01:37:52.312Z,50.69
2018-03-03T01:38:52.267Z,50.59
2018-03-03T01:39:52.224Z,50.40
2018-03-03T01:40:52.180Z,50.27
2018-03-03T01:41:52.166Z,50.37
2018-03-03T01:42:52.114Z,50.59
2018-03-03T01:43:52.053Z,50.47
2018-03-03T01:44:52.016Z,50.40
2018-03-03T01:45:51.978Z,50.49
2018-03-03T01:46:51.924Z,50.47
2018-03-03T01:47:51.900Z,50.47
2018-03-03T01:48:51.877Z,50.49
2018-03-03T01:49:51.818Z,50.37
2018-03-03T01:50:51.776Z,50.40
2018-03-03T01:51:51.732Z,50.18
2018-03-03T01:52:51.680Z,50.27
2018-03-03T01:53:51.661Z,50.11
2018-03-03T01:54:51.607Z,50.57
2018-03-03T01:55:51.566Z,50.27
2018-03-03T01:56:51.540Z,50.37
2018-03-03T01:57:51.468Z,50.47
2018-03-03T01:58:51.453Z,50.30
2018-03-03T01:59:51.395Z,50.40
2018-03-03T02:00:51.349Z,50.47
2018-03-03T02:01:51.352Z,50.11
2018-03-03T02:02:51.268Z,49.91
2018-03-03T02:03:51.224Z,49.43
2018-03-03T02:04:51.217Z,49.70
2018-03-03T02:05:51.146Z,50.01
2018-03-03T02:06:51.112Z,49.82
2018-03-03T02:07:51.068Z,49.73
2018-03-03T02:08:51.025Z,49.73
2018-03-03T02:09:50.982Z,49.91
2018-03-03T02:10:50.932Z,49.24
2018-03-03T02:11:50.902Z,49.24
2018-03-03T02:12:50.860Z,49.43
2018-03-03T02:13:50.819Z,49.24
2018-03-03T02:14:50.778Z,49.02
2018-03-03T02:15:50.743Z,49.22
2018-03-03T02:16:50.699Z,49.12
2018-03-03T02:17:50.648Z,49.12
2018-03-03T02:18:50.614Z,49.22
2018-03-03T02:19:50.576Z,48.93
2018-03-03T02:20:50.529Z,49.02
2018-03-03T02:21:50.484Z,48.83
2018-03-03T02:22:50.449Z,49.02
2018-03-03T02:23:50.405Z,49.12
2018-03-03T02:24:50.361Z,49.22
2018-03-03T02:25:50.319Z,49.02
2018-03-03T02:26:50.278Z,49.02
2018-03-03T02:27:50.234Z,49.02
2018-03-03T02:28:50.200Z,49.02
2018-03-03T02:29:50.174Z,48.93
2018-03-03T02:30:50.121Z,49.12
2018-03-03T02:31:50.072Z,48.93
2018-03-03T02:32:50.038Z,49.02
2018-03-03T02:33:49.997Z,48.83
2018-03-03T02:34:49.950Z,49.32
2018-03-03T02:35:49.917Z,48.74
2018-03-03T02:36:49.866Z,49.02
2018-03-03T02:37:49.824Z,49.02
2018-03-03T02:38:49.781Z,49.12
2018-03-03T02:39:49.744Z,49.02
2018-03-03T02:40:49.701Z,48.93
2018-03-03T02:41:49.660Z,49.22
2018-03-03T02:42:49.624Z,49.22
2018-03-03T02:43:49.578Z,48.83
2018-03-03T02:44:49.533Z,49.02
2018-03-03T02:45:49.491Z,49.02
2018-03-03T02:46:49.449Z,48.90
2018-03-03T02:47:49.411Z,49.19
2018-03-03T02:48:49.367Z,49.19
2018-03-03T02:49:49.338Z,48.81
2018-03-03T02:50:49.287Z,49.19
2018-03-03T02:51:49.250Z,49.10
2018-03-03T02:52:49.199Z,49.19
2018-03-03T02:53:49.167Z,49.00
2018-03-03T02:54:49.121Z,49.00
2018-03-03T02:55:49.108Z,49.02
2018-03-03T02:56:49.033Z,48.83
2018-03-03T02:57:48.987Z,49.02
2018-03-03T02:58:48.954Z,48.90
2018-03-03T02:59:48.901Z,48.83
2018-03-03T03:00:48.870Z,48.61
2018-03-03T03:01:48.830Z,48.83
2018-03-03T03:02:48.787Z,48.83
2018-03-03T03:03:48.751Z,48.81
2018-03-03T03:04:48.704Z,48.90
2018-03-03T03:05:48.651Z,48.90
2018-03-03T03:06:48.616Z,48.81
2018-03-03T03:07:48.579Z,49.00
2018-03-03T03:08:48.535Z,48.81
2018-03-03T03:09:48.499Z,48.52
2018-03-03T03:10:48.455Z,48.90
2018-03-03T03:11:48.411Z,49.10
2018-03-03T03:12:48.376Z,49.10
2018-03-03T03:13:48.333Z,48.61
2018-03-03T03:14:48.290Z,48.90
2018-03-03T03:15:48.246Z,48.61
2018-03-03T03:16:48.211Z,48.81
2018-03-03T03:17:48.169Z,48.52
2018-03-03T03:18:48.121Z,48.43
2018-03-03T03:19:48.080Z,48.61
2018-03-03T03:20:48.035Z,48.52
2018-03-03T03:21:47.996Z,48.33
2018-03-03T03:22:47.966Z,48.13
2018-03-03T03:23:47.918Z,48.61
2018-03-03T03:24:47.869Z,48.43
2018-03-03T03:25:47.817Z,48.71
2018-03-03T03:26:47.789Z,48.43
2018-03-03T03:27:47.749Z,48.52
2018-03-03T03:28:47.695Z,48.52
2018-03-03T03:29:47.660Z,48.71
2018-03-03T03:30:47.618Z,48.43
2018-03-03T03:31:47.583Z,48.61
2018-03-03T03:32:47.544Z,48.43
2018-03-03T03:33:47.487Z,48.90
2018-03-03T03:34:47.449Z,48.90
2018-03-03T03:35:47.415Z,48.43
2018-03-03T03:36:47.378Z,48.71
2018-03-03T03:37:47.323Z,48.52
2018-03-03T03:38:47.288Z,48.71
2018-03-03T03:39:47.268Z,49.10
2018-03-03T03:40:47.202Z,48.43
2018-03-03T03:41:47.189Z,48.52
2018-03-03T03:42:47.128Z,48.90
2018-03-03T03:43:47.070Z,49.00
2018-03-03T03:44:47.078Z,48.90
2018-03-03T03:45:46.983Z,48.97
2018-03-03T03:46:46.958Z,49.00
2018-03-03T03:47:46.922Z,48.52
2018-03-03T03:48:46.878Z,48.90
2018-03-03T03:49:46.830Z,48.43
2018-03-03T03:50:46.796Z,48.97
2018-03-03T03:51:46.743Z,49.07
2018-03-03T03:52:46.706Z,49.17
2018-03-03T03:53:46.673Z,48.43
2018-03-03T03:54:46.620Z,48.49
2018-03-03T03:55:46.577Z,48.59
2018-03-03T03:56:46.533Z,48.88
2018-03-03T03:57:46.503Z,48.97
2018-03-03T03:58:46.451Z,49.27
2018-03-03T03:59:46.420Z,48.97
2018-03-03T04:00:46.364Z,48.40
2018-03-03T04:01:46.336Z,49.17
2018-03-03T04:02:46.281Z,48.30
2018-03-03T04:03:46.239Z,48.59
2018-03-03T04:04:46.200Z,48.59
2018-03-03T04:05:46.160Z,48.40
2018-03-03T04:06:46.120Z,48.59
2018-03-03T04:07:46.078Z,48.40
2018-03-03T04:08:46.040Z,48.30
2018-03-03T04:09:45.998Z,48.59
2018-03-03T04:10:45.948Z,48.49
2018-03-03T04:11:45.912Z,48.30
2018-03-03T04:12:45.868Z,48.49
2018-03-03T04:13:45.819Z,48.40
2018-03-03T04:14:45.782Z,48.30
2018-03-03T04:15:45.747Z,48.49
2018-03-03T04:16:45.699Z,48.30
2018-03-03T04:17:45.656Z,48.40
2018-03-03T04:18:45.613Z,48.21
2018-03-03T04:19:45.574Z,48.49
2018-03-03T04:20:45.532Z,48.11
2018-03-03T04:21:45.493Z,48.21
2018-03-03T04:22:45.446Z,48.49
2018-03-03T04:23:46.366Z,48.49
2018-03-03T04:24:45.370Z,48.40
2018-03-03T04:25:45.320Z,48.40
2018-03-03T04:26:45.288Z,48.30
2018-03-03T04:27:45.237Z,48.40
2018-03-03T04:28:45.196Z,48.40
2018-03-03T04:29:45.155Z,48.40
2018-03-03T04:30:45.120Z,48.40
2018-03-03T04:31:45.074Z,48.30
2018-03-03T04:32:45.025Z,48.21
2018-03-03T04:33:44.989Z,48.40
2018-03-03T04:34:44.944Z,48.49
2018-03-03T04:35:44.903Z,48.40
2018-03-03T04:36:44.862Z,48.49
2018-03-03T04:37:44.821Z,48.40
2018-03-03T04:38:44.774Z,48.40
2018-03-03T04:39:44.741Z,48.69
2018-03-03T04:40:44.693Z,48.02
2018-03-03T04:41:44.655Z,48.02
2018-03-03T04:42:44.614Z,48.69
2018-03-03T04:43:44.572Z,48.11
2018-03-03T04:44:44.525Z,48.30
2018-03-03T04:45:44.481Z,48.11
2018-03-03T04:46:44.439Z,48.11
2018-03-03T04:47:44.403Z,48.02
2018-03-03T04:48:44.362Z,48.11
2018-03-03T04:49:44.321Z,48.11
2018-03-03T04:50:44.273Z,48.02
2018-03-03T04:51:44.231Z,47.92
2018-03-03T04:52:44.191Z,48.21
2018-03-03T04:53:44.151Z,48.21
2018-03-03T04:54:44.117Z,48.21
2018-03-03T04:55:44.067Z,48.11
2018-03-03T04:56:44.026Z,48.11
2018-03-03T04:57:43.981Z,48.02
2018-03-03T04:58:43.942Z,48.11
2018-03-03T04:59:43.905Z,48.02
2018-03-03T05:00:43.866Z,48.11
2018-03-03T05:01:43.812Z,47.92
2018-03-03T05:02:43.782Z,48.02
2018-03-03T05:03:43.736Z,48.02
2018-03-03T05:04:43.690Z,48.21
2018-03-03T05:05:43.731Z,48.11
2018-03-03T05:06:43.601Z,47.92
2018-03-03T05:07:43.555Z,47.99
2018-03-03T05:08:43.524Z,47.99
2018-03-03T05:09:43.466Z,47.92
2018-03-03T05:10:43.433Z,48.02
2018-03-03T05:11:43.388Z,48.02
2018-03-03T05:12:43.350Z,48.11
2018-03-03T05:13:43.326Z,47.92
2018-03-03T05:14:43.268Z,48.21
2018-03-03T05:15:43.243Z,48.08
2018-03-03T05:16:43.184Z,47.89
2018-03-03T05:17:43.142Z,48.08
2018-03-03T05:18:43.100Z,47.99
2018-03-03T05:19:43.059Z,48.08
2018-03-03T05:20:43.015Z,48.18
2018-03-03T05:21:42.973Z,47.89
2018-03-03T05:22:42.927Z,47.99
2018-03-03T05:23:42.895Z,47.92
2018-03-03T05:24:42.849Z,47.99
2018-03-03T05:25:42.805Z,47.99
2018-03-03T05:26:42.763Z,47.99
2018-03-03T05:27:42.718Z,48.08
2018-03-03T05:28:42.678Z,48.08
2018-03-03T05:29:42.648Z,47.99
2018-03-03T05:30:42.592Z,47.99
2018-03-03T05:31:42.556Z,48.08
2018-03-03T05:32:42.511Z,47.89
2018-03-03T05:33:42.474Z,47.89
2018-03-03T05:34:42.428Z,47.89
2018-03-03T05:35:42.384Z,47.70
2018-03-03T05:36:42.346Z,47.89
2018-03-03T05:37:42.302Z,47.80
2018-03-03T05:38:42.262Z,47.80
2018-03-03T05:39:42.222Z,47.70
2018-03-03T05:40:42.171Z,47.70
2018-03-03T05:41:42.135Z,47.61
2018-03-03T05:42:42.097Z,47.80
2018-03-03T05:43:42.049Z,47.80
2018-03-03T05:44:42.006Z,47.80
2018-03-03T05:45:41.975Z,47.80
2018-03-03T05:46:41.929Z,47.80
2018-03-03T05:47:41.876Z,47.70
2018-03-03T05:48:41.841Z,47.61
2018-03-03T05:49:42.393Z,47.70
2018-03-03T05:50:41.753Z,47.61
2018-03-03T05:51:41.709Z,47.61
2018-03-03T05:52:41.674Z,47.61
2018-03-03T05:53:41.629Z,47.61
2018-03-03T05:54:41.582Z,47.31
2018-03-03T05:55:41.551Z,47.61
2018-03-03T05:56:41.504Z,47.61
2018-03-03T05:57:41.458Z,47.22
2018-03-03T05:58:41.414Z,47.61
2018-03-03T05:59:41.371Z,47.61
2018-03-03T06:00:41.336Z,47.31
2018-03-03T06:01:41.293Z,47.61
2018-03-03T06:02:41.249Z,47.61
2018-03-03T06:03:41.215Z,47.22
2018-03-03T06:04:41.163Z,47.31
2018-03-03T06:05:41.124Z,47.61
2018-03-03T06:06:41.087Z,47.70
2018-03-03T06:07:41.044Z,47.61
2018-03-03T06:08:41.001Z,47.61
2018-03-03T06:09:40.961Z,47.61
2018-03-03T06:10:40.904Z,47.70
2018-03-03T06:11:40.870Z,47.22
2018-03-03T06:12:40.835Z,47.70
2018-03-03T06:13:40.787Z,47.61
2018-03-03T06:14:40.742Z,47.70
2018-03-03T06:15:40.697Z,47.70
2018-03-03T06:16:40.674Z,47.51
2018-03-03T06:17:40.623Z,47.61
2018-03-03T06:18:40.574Z,47.31
2018-03-03T06:19:40.532Z,47.31
2018-03-03T06:20:40.492Z,47.70
2018-03-03T06:21:40.447Z,47.31
2018-03-03T06:22:40.407Z,47.70
2018-03-03T06:23:40.366Z,47.41
2018-03-03T06:24:40.320Z,47.70
2018-03-03T06:25:40.278Z,47.61
2018-03-03T06:26:40.242Z,47.61
2018-03-03T06:27:40.188Z,47.61
2018-03-03T06:28:40.158Z,47.80
2018-03-03T06:29:40.113Z,47.70
2018-03-03T06:30:40.062Z,47.80
2018-03-03T06:31:40.028Z,47.80
2018-03-03T06:32:39.992Z,47.70
2018-03-03T06:33:39.956Z,47.70
2018-03-03T06:34:39.906Z,47.31
2018-03-03T06:35:39.853Z,47.51
2018-03-03T06:36:39.821Z,47.51
2018-03-03T06:37:39.773Z,47.80
2018-03-03T06:38:39.722Z,47.61
2018-03-03T06:39:39.692Z,47.13
2018-03-03T06:40:39.644Z,47.51
2018-03-03T06:41:39.606Z,47.61
2018-03-03T06:42:39.558Z,47.51
2018-03-03T06:43:39.520Z,46.93
2018-03-03T06:44:39.479Z,47.31
2018-03-03T06:45:39.437Z,47.13
2018-03-03T06:46:39.398Z,47.22
2018-03-03T06:47:39.354Z,47.31
2018-03-03T06:48:39.322Z,47.15
2018-03-03T06:49:39.276Z,47.13
2018-03-03T06:50:39.249Z,46.77
2018-03-03T06:51:39.178Z,46.95
2018-03-03T06:52:39.138Z,46.84
2018-03-03T06:53:39.092Z,46.86
2018-03-03T06:54:39.117Z,46.77
2018-03-03T06:55:39.022Z,46.95
2018-03-03T06:56:38.970Z,47.05
2018-03-03T06:57:38.925Z,47.15
2018-03-03T06:58:38.893Z,46.67
2018-03-03T06:59:38.847Z,46.86
2018-03-03T07:00:38.819Z,46.67
2018-03-03T07:01:38.765Z,46.57
2018-03-03T07:02:38.728Z,46.86
2018-03-03T07:03:38.677Z,46.67
2018-03-03T07:04:38.630Z,46.28
2018-03-03T07:05:38.583Z,46.19
2018-03-03T07:06:38.551Z,46.40
2018-03-03T07:07:38.511Z,46.67
2018-03-03T07:08:38.471Z,46.47
2018-03-03T07:09:38.422Z,46.21
2018-03-03T07:10:38.384Z,45.92
2018-03-03T07:11:38.342Z,45.83
2018-03-03T07:12:38.301Z,45.53
2018-03-03T07:13:38.261Z,46.01
2018-03-03T07:14:38.217Z,45.73
2018-03-03T07:15:38.169Z,45.44
2018-03-03T07:16:38.140Z,45.53
2018-03-03T07:17:38.090Z,45.25
2018-03-03T07:18:38.047Z,45.25
2018-03-03T07:19:38.008Z,45.05
2018-03-03T07:20:37.964Z,45.15
2018-03-03T07:21:37.924Z,45.05
2018-03-03T07:22:37.879Z,45.15
2018-03-03T07:23:37.842Z,45.07
2018-03-03T07:24:37.800Z,44.98
2018-03-03T07:25:37.753Z,44.98
2018-03-03T07:26:37.711Z,44.98
2018-03-03T07:27:37.675Z,44.79
2018-03-03T07:28:37.632Z,44.79
2018-03-03T07:29:37.586Z,44.98
2018-03-03T07:30:37.544Z,44.79
2018-03-03T07:31:37.516Z,44.69
2018-03-03T07:32:37.482Z,44.89
2018-03-03T07:33:37.427Z,44.79
2018-03-03T07:34:37.918Z,44.89
2018-03-03T07:35:37.339Z,45.07
2018-03-03T07:36:37.298Z,44.98
2018-03-03T07:37:37.252Z,44.81
2018-03-03T07:38:37.212Z,44.52
2018-03-03T07:39:37.168Z,44.32
2018-03-03T07:40:37.140Z,44.13
2018-03-03T07:41:37.089Z,44.32
2018-03-03T07:42:37.053Z,44.23
2018-03-03T07:43:37.008Z,43.94
2018-03-03T07:44:36.967Z,44.04
2018-03-03T07:45:36.918Z,43.94
2018-03-03T07:46:36.877Z,44.13
2018-03-03T07:47:36.840Z,43.94
2018-03-03T07:48:36.796Z,43.65
2018-03-03T07:49:36.748Z,43.55
2018-03-03T07:50:36.703Z,43.67
2018-03-03T07:51:36.668Z,43.48
2018-03-03T07:52:36.631Z,43.58
2018-03-03T07:53:36.595Z,43.58
2018-03-03T07:54:36.556Z,43.38
2018-03-03T07:55:36.500Z,43.48
2018-03-03T07:56:36.463Z,43.48
2018-03-03T07:57:36.425Z,43.58
2018-03-03T07:58:36.393Z,43.67
2018-03-03T07:59:36.340Z,43.77
2018-03-03T08:00:36.301Z,43.48
2018-03-03T08:01:36.258Z,43.29
2018-03-03T08:02:36.274Z,43.19
2018-03-03T08:03:36.163Z,43.12
2018-03-03T08:04:36.131Z,43.12
2018-03-03T08:05:36.089Z,43.12
2018-03-03T08:06:36.053Z,42.83
2018-03-03T08:07:36.018Z,42.83
2018-03-03T08:08:35.966Z,43.02
2018-03-03T08:09:35.920Z,42.63
2018-03-03T08:10:35.888Z,42.54
2018-03-03T08:11:35.836Z,42.83
2018-03-03T08:12:35.803Z,42.63
2018-03-03T08:13:35.764Z,42.63
2018-03-03T08:14:35.708Z,42.54
2018-03-03T08:15:35.676Z,42.63
2018-03-03T08:16:35.676Z,42.44
2018-03-03T08:17:35.600Z,42.63
2018-03-03T08:18:36.428Z,42.35
2018-03-03T08:19:35.508Z,42.35
2018-03-03T08:20:35.472Z,42.56
2018-03-03T08:21:35.445Z,42.66
2018-03-03T08:22:35.387Z,42.85
2018-03-03T08:23:35.358Z,42.66
2018-03-03T08:24:35.313Z,42.75
2018-03-03T08:25:35.265Z,42.75
2018-03-03T08:26:35.217Z,42.66
2018-03-03T08:27:35.184Z,42.85
2018-03-03T08:28:35.148Z,42.46
2018-03-03T08:29:35.092Z,42.27
2018-03-03T08:30:35.056Z,42.75
2018-03-03T08:31:35.019Z,41.78
2018-03-03T08:32:34.971Z,41.88
2018-03-03T08:33:34.934Z,42.18
2018-03-03T08:34:34.897Z,42.08
2018-03-03T08:35:34.863Z,42.18
2018-03-03T08:36:34.814Z,42.18
2018-03-03T08:37:34.773Z,42.29
2018-03-03T08:38:34.745Z,42.27
2018-03-03T08:39:34.686Z,42.19
2018-03-03T08:40:34.727Z,42.39
2018-03-03T08:41:34.605Z,42.18
2018-03-03T08:42:34.567Z,42.10
2018-03-03T08:43:34.527Z,42.10
2018-03-03T08:44:34.482Z,42.10
2018-03-03T08:45:34.441Z,42.10
2018-03-03T08:46:34.414Z,42.10
2018-03-03T08:47:34.354Z,41.91
2018-03-03T08:48:34.334Z,41.81
2018-03-03T08:49:34.274Z,42.19
2018-03-03T08:50:34.235Z,42.19
2018-03-03T08:51:34.202Z,42.00
2018-03-03T08:52:34.171Z,41.91
2018-03-03T08:53:34.122Z,41.93
2018-03-03T08:54:34.071Z,42.00
2018-03-03T08:55:34.035Z,42.00
2018-03-03T08:56:33.996Z,41.61
2018-03-03T08:57:33.952Z,41.63
2018-03-03T08:58:33.914Z,41.73
2018-03-03T08:59:33.879Z,41.35
2018-03-03T09:00:33.852Z,41.83
2018-03-03T09:01:33.800Z,41.54
2018-03-03T09:02:33.747Z,41.54
2018-03-03T09:03:33.707Z,41.54
2018-03-03T09:04:33.726Z,41.63
2018-03-03T09:05:33.636Z,41.44
2018-03-03T09:06:33.584Z,41.35
2018-03-03T09:07:33.562Z,41.35
2018-03-03T09:08:33.504Z,41.44
2018-03-03T09:09:33.462Z,41.17
2018-03-03T09:10:33.426Z,41.17
2018-03-03T09:11:33.386Z,41.17
2018-03-03T09:12:33.342Z,41.17
2018-03-03T09:13:33.299Z,41.08
2018-03-03T09:14:33.269Z,41.17
2018-03-03T09:15:33.229Z,40.88
2018-03-03T09:16:33.185Z,40.59
2018-03-03T09:17:33.141Z,41.08
2018-03-03T09:18:33.093Z,40.98
2018-03-03T09:19:33.065Z,41.27
2018-03-03T09:20:33.017Z,41.27
2018-03-03T09:21:32.983Z,40.50
2018-03-03T09:22:32.940Z,41.17
2018-03-03T09:23:32.905Z,41.00
2018-03-03T09:24:32.862Z,40.90
2018-03-03T09:25:32.817Z,41.00
2018-03-03T09:26:32.779Z,40.81
2018-03-03T09:27:32.735Z,40.81
2018-03-03T09:28:32.726Z,40.90
2018-03-03T09:29:32.662Z,40.90
2018-03-03T09:30:32.622Z,40.90
2018-03-03T09:31:32.579Z,40.81
2018-03-03T09:32:32.539Z,40.81
2018-03-03T09:33:32.497Z,40.90
2018-03-03T09:34:32.458Z,40.90
2018-03-03T09:35:32.412Z,40.81
2018-03-03T09:36:32.372Z,40.90
2018-03-03T09:37:32.348Z,40.90
2018-03-03T09:38:32.297Z,40.81
2018-03-03T09:39:32.262Z,40.71
2018-03-03T09:40:32.206Z,40.90
2018-03-03T09:41:32.166Z,40.81
2018-03-03T09:42:32.133Z,40.71
2018-03-03T09:43:32.091Z,40.81
2018-03-03T09:44:32.053Z,40.81
2018-03-03T09:45:32.040Z,40.61
2018-03-03T09:46:31.965Z,40.71
2018-03-03T09:47:31.951Z,40.81
2018-03-03T09:48:31.912Z,40.90
2018-03-03T09:49:31.845Z,40.81
2018-03-03T09:50:31.805Z,40.81
2018-03-03T09:51:31.769Z,40.81
2018-03-03T09:52:31.736Z,40.90
2018-03-03T09:53:31.696Z,40.90
2018-03-03T09:54:31.643Z,40.90
2018-03-03T09:55:31.607Z,40.90
2018-03-03T09:56:31.567Z,40.81
2018-03-03T09:57:31.536Z,40.90
2018-03-03T09:58:31.487Z,41.19
2018-03-03T09:59:31.510Z,41.19
2018-03-03T10:00:31.401Z,40.81
2018-03-03T10:01:31.440Z,41.29
2018-03-03T10:02:31.323Z,40.81
2018-03-03T10:03:31.286Z,40.90
2018-03-03T10:04:31.240Z,41.09
2018-03-03T10:05:31.200Z,41.19
2018-03-03T10:06:31.169Z,41.39
2018-03-03T10:07:31.126Z,41.48
2018-03-03T10:08:31.085Z,41.48
2018-03-03T10:09:31.123Z,41.29
2018-03-03T10:10:31.013Z,41.39
2018-03-03T10:11:30.954Z,41.29
2018-03-03T10:12:30.927Z,41.19
2018-03-03T10:13:30.881Z,41.29
2018-03-03T10:14:30.846Z,41.29
2018-03-03T10:15:30.798Z,41.29
2018-03-03T10:16:30.764Z,41.39
2018-03-03T10:17:30.712Z,41.29
2018-03-03T10:18:30.698Z,41.19
2018-03-03T10:19:30.644Z,41.19
2018-03-03T10:20:30.611Z,41.09
2018-03-03T10:21:30.564Z,41.19
2018-03-03T10:22:30.521Z,41.19
2018-03-03T10:23:30.474Z,41.19
2018-03-03T10:24:30.442Z,41.39
2018-03-03T10:25:30.397Z,41.19
2018-03-03T10:26:30.356Z,41.19
2018-03-03T10:27:30.319Z,41.19
2018-03-03T10:28:30.286Z,41.31
2018-03-03T10:29:30.240Z,41.29
2018-03-03T10:30:30.203Z,41.19
2018-03-03T10:31:30.157Z,41.21
2018-03-03T10:32:30.130Z,41.11
2018-03-03T10:33:30.083Z,41.21
2018-03-03T10:34:30.033Z,41.29
2018-03-03T10:35:30.005Z,41.19
2018-03-03T10:36:29.954Z,41.29
2018-03-03T10:37:29.911Z,41.48
2018-03-03T10:38:29.882Z,41.29
2018-03-03T10:39:29.836Z,41.39
2018-03-03T10:40:29.793Z,41.31
2018-03-03T10:41:29.749Z,41.19
2018-03-03T10:42:29.712Z,41.21
2018-03-03T10:43:29.674Z,41.21
2018-03-03T10:44:29.633Z,41.21
2018-03-03T10:45:29.598Z,41.21
2018-03-03T10:46:29.556Z,41.21
2018-03-03T10:47:29.516Z,41.21
2018-03-03T10:48:29.470Z,41.11
2018-03-03T10:49:29.431Z,41.11
2018-03-03T10:50:29.395Z,41.11
2018-03-03T10:51:29.362Z,41.11
2018-03-03T10:52:29.312Z,41.11
2018-03-03T10:53:29.268Z,41.21
2018-03-03T10:54:29.225Z,41.11
2018-03-03T10:55:29.976Z,41.11
2018-03-03T10:56:29.157Z,41.11
2018-03-03T10:57:29.108Z,41.11
2018-03-03T10:58:29.065Z,41.11
2018-03-03T10:59:29.032Z,41.11
2018-03-03T11:00:28.991Z,41.21
2018-03-03T11:01:28.944Z,41.11
2018-03-03T11:02:28.927Z,40.83
2018-03-03T11:03:28.868Z,40.83
2018-03-03T11:04:28.832Z,40.83
2018-03-03T11:05:28.789Z,41.02
2018-03-03T11:06:28.755Z,41.41
2018-03-03T11:07:28.718Z,40.92
2018-03-03T11:08:28.669Z,41.02
2018-03-03T11:09:28.628Z,41.14
2018-03-03T11:10:28.595Z,41.21
2018-03-03T11:11:28.553Z,41.14
2018-03-03T11:12:28.505Z,41.24
2018-03-03T11:13:28.471Z,41.04
2018-03-03T11:14:28.421Z,41.24
2018-03-03T11:15:28.380Z,41.24
2018-03-03T11:16:28.350Z,41.24
2018-03-03T11:17:28.306Z,40.94
2018-03-03T11:18:28.273Z,40.94
2018-03-03T11:19:28.232Z,40.84
2018-03-03T11:20:28.192Z,40.94
2018-03-03T11:21:28.160Z,40.94
2018-03-03T11:22:28.112Z,40.94
2018-03-03T11:23:28.069Z,40.84
2018-03-03T11:24:28.042Z,40.84
2018-03-03T11:25:27.985Z,40.75
2018-03-03T11:26:27.948Z,40.75
2018-03-03T11:27:27.920Z,40.75
2018-03-03T11:28:27.862Z,40.65
2018-03-03T11:29:27.849Z,40.36
2018-03-03T11:30:27.792Z,40.75
2018-03-03T11:31:27.747Z,40.77
2018-03-03T11:32:27.709Z,40.77
2018-03-03T11:33:27.669Z,40.86
2018-03-03T11:34:27.628Z,40.77
2018-03-03T11:35:27.596Z,40.94
2018-03-03T11:36:27.551Z,40.96
2018-03-03T11:37:27.520Z,41.14
2018-03-03T11:38:27.467Z,41.04
2018-03-03T11:39:27.433Z,41.04
2018-03-03T11:40:33.133Z,40.94
2018-03-03T11:41:27.369Z,41.16
2018-03-03T11:42:27.316Z,40.94
2018-03-03T11:43:27.990Z,41.06
2018-03-03T11:44:27.229Z,40.75
2018-03-03T11:45:27.194Z,40.84
2018-03-03T11:46:27.149Z,40.84
2018-03-03T11:47:27.133Z,40.94
2018-03-03T11:48:27.063Z,40.84
2018-03-03T11:49:27.033Z,40.84
2018-03-03T11:50:26.993Z,40.84
2018-03-03T11:51:26.956Z,40.94
2018-03-03T11:52:26.911Z,40.84
2018-03-03T11:53:26.869Z,40.94
2018-03-03T11:54:26.827Z,40.94
2018-03-03T11:55:26.790Z,41.14
2018-03-03T11:56:26.761Z,40.94
2018-03-03T11:57:26.713Z,41.14
2018-03-03T11:58:26.677Z,40.36
2018-03-03T11:59:26.632Z,39.97
2018-03-03T12:00:26.603Z,40.26
2018-03-03T12:01:26.555Z,40.56
2018-03-03T12:02:26.513Z,39.69
2018-03-03T12:03:26.481Z,40.17
2018-03-03T12:04:26.440Z,40.46
2018-03-03T12:05:26.394Z,40.84
2018-03-03T12:06:26.370Z,40.84
2018-03-03T12:07:26.315Z,41.14
2018-03-03T12:08:26.275Z,41.14
2018-03-03T12:09:26.236Z,41.33
2018-03-03T12:10:26.202Z,41.04
2018-03-03T12:11:26.154Z,40.84
2018-03-03T12:12:26.138Z,40.46
2018-03-03T12:13:26.071Z,39.59
2018-03-03T12:14:26.038Z,39.29
2018-03-03T12:15:25.993Z,39.20
2018-03-03T12:16:25.964Z,39.69
2018-03-03T12:17:25.908Z,40.36
2018-03-03T12:18:25.883Z,40.56
2018-03-03T12:19:25.838Z,40.84
2018-03-03T12:20:25.823Z,41.04
2018-03-03T12:21:25.756Z,40.94
2018-03-03T12:22:25.712Z,40.83
2018-03-03T12:23:25.677Z,40.92
2018-03-03T12:24:25.634Z,40.92
2018-03-03T12:25:25.625Z,40.83
2018-03-03T12:26:25.546Z,41.02
2018-03-03T12:27:25.554Z,40.92
2018-03-03T12:28:25.472Z,40.92
2018-03-03T12:29:25.481Z,40.83
2018-03-03T12:30:25.390Z,40.83
2018-03-03T12:31:25.367Z,41.02
2018-03-03T12:32:25.317Z,40.63
2018-03-03T12:33:25.271Z,40.83
2018-03-03T12:34:25.249Z,40.63
2018-03-03T12:35:25.193Z,40.73
2018-03-03T12:36:25.146Z,40.05
2018-03-03T12:37:25.109Z,40.05
2018-03-03T12:38:25.067Z,40.34
2018-03-03T12:39:25.062Z,39.67
2018-03-03T12:40:24.986Z,39.47
2018-03-03T12:41:24.959Z,39.67
2018-03-03T12:42:24.912Z,39.67
2018-03-03T12:43:24.872Z,39.37
2018-03-03T12:44:24.833Z,39.18
2018-03-03T12:45:24.791Z,38.99
2018-03-03T12:46:24.752Z,39.18
2018-03-03T12:47:24.710Z,38.99
2018-03-03T12:48:24.673Z,38.99
2018-03-03T12:49:24.627Z,39.09
2018-03-03T12:50:24.599Z,39.28
2018-03-03T12:51:24.547Z,38.99
2018-03-03T12:52:24.509Z,39.09